Time;durP1;ratioP1;P1;durP2;ratioP2;P2;SDS_P1;SDS_P2;PMS_P1;PMS_P2;Temp;Humidity;BMP_temperature;BMP_pressure;BME280_temperature;BME280_humidity;BME280_pressure;Samples;Min_cycle;Max_cycle;Signal;HPM_P1;HPM_P2
2022/01/15 00:00:37;;;;;;;1.60;0.80;;;;;;;;;;6296812;28;20248;-79
2022/01/15 00:03:42;;;;;;;0.83;0.83;;;;;;;;;;6279013;28;20214;-79
2022/01/15 00:06:46;;;;;;;0.87;0.87;;;;;;;;;;6296698;28;20271;-79
2022/01/15 00:09:51;;;;;;;1.00;0.70;;;;;;;;;;6296622;28;20234;-80
2022/01/15 00:12:58;;;;;;;1.40;0.97;;;;;;;;;;6296923;28;20213;-79
2022/01/15 00:16:07;;;;;;;0.77;0.77;;;;;;;;;;6296523;28;20255;-80
2022/01/15 00:19:13;;;;;;;0.83;0.83;;;;;;;;;;6278082;28;20228;-80
2022/01/15 00:22:20;;;;;;;0.83;0.83;;;;;;;;;;6296655;28;20199;-79
2022/01/15 00:25:25;;;;;;;0.90;0.90;;;;;;;;;;6296403;28;20226;-80
2022/01/15 00:28:31;;;;;;;0.90;0.90;;;;;;;;;;6279105;28;20507;-80
2022/01/15 00:31:37;;;;;;;1.63;0.80;;;;;;;;;;6261561;28;20258;-79
2022/01/15 00:34:41;;;;;;;1.80;0.70;;;;;;;;;;6273797;28;20295;-79
2022/01/15 00:37:47;;;;;;;0.70;0.70;;;;;;;;;;6292723;28;20204;-79
2022/01/15 00:40:51;;;;;;;0.70;0.70;;;;;;;;;;6292226;28;20227;-80
2022/01/15 00:43:57;;;;;;;0.90;0.90;;;;;;;;;;6295174;28;20198;-80
2022/01/15 00:47:01;;;;;;;0.70;0.70;;;;;;;;;;6296244;28;20215;-79
2022/01/15 00:50:08;;;;;;;0.80;0.80;;;;;;;;;;6295644;28;20346;-79
2022/01/15 00:53:12;;;;;;;0.60;0.60;;;;;;;;;;6294021;28;20291;-79
2022/01/15 00:56:16;;;;;;;0.80;0.80;;;;;;;;;;6294606;28;20229;-79
2022/01/15 00:59:21;;;;;;;1.57;0.90;;;;;;;;;;6294792;28;20256;-79
2022/01/15 01:02:26;;;;;;;0.70;0.70;;;;;;;;;;6295269;28;20199;-79
2022/01/15 01:05:31;;;;;;;0.80;0.80;;;;;;;;;;6292724;28;20524;-79
2022/01/15 01:08:35;;;;;;;1.00;1.00;;;;;;;;;;6295766;28;20376;-79
2022/01/15 01:11:46;;;;;;;2.13;0.90;;;;;;;;;;6292823;28;20232;-79
2022/01/15 01:25:09;;;;;;;0.80;0.80;;;;;;;;;;6286893;28;20235;-79
2022/01/15 01:28:24;;;;;;;0.70;0.70;;;;;;;;;;6320150;28;20247;-79
2022/01/15 01:31:36;;;;;;;1.03;1.03;;;;;;;;;;6319994;28;20301;-79
2022/01/15 01:34:43;;;;;;;0.83;0.83;;;;;;;;;;6319490;28;20245;-78
2022/01/15 01:37:51;;;;;;;0.73;0.73;;;;;;;;;;6319730;28;20454;-79
2022/01/15 01:40:58;;;;;;;1.00;1.00;;;;;;;;;;6301464;28;20239;-79
2022/01/15 01:44:03;;;;;;;2.63;0.90;;;;;;;;;;6319275;28;20210;-79
2022/01/15 01:47:22;;;;;;;0.80;0.80;;;;;;;;;;6319862;28;20228;-79
2022/01/15 01:50:27;;;;;;;0.90;0.90;;;;;;;;;;6300436;28;20238;-79
2022/01/15 01:53:32;;;;;;;0.80;0.80;;;;;;;;;;6319779;28;20211;-79
2022/01/15 01:56:37;;;;;;;1.87;0.97;;;;;;;;;;6301005;28;20425;-79
2022/01/15 01:59:41;;;;;;;1.47;0.90;;;;;;;;;;6301622;28;20225;-79
2022/01/15 02:02:47;;;;;;;1.70;0.97;;;;;;;;;;6319528;28;20296;-79
2022/01/15 02:05:52;;;;;;;1.50;0.83;;;;;;;;;;6318851;28;20233;-79
2022/01/15 02:08:58;;;;;;;1.10;1.00;;;;;;;;;;6300978;28;20200;-79
2022/01/15 02:12:02;;;;;;;1.17;0.90;;;;;;;;;;6319373;28;20240;-79
2022/01/15 02:15:10;;;;;;;0.70;0.70;;;;;;;;;;6318730;28;20282;-79
2022/01/15 02:18:24;;;;;;;1.07;0.90;;;;;;;;;;6322700;28;20184;-79
2022/01/15 02:24:52;;;;;;;0.93;0.93;;;;;;;;;;6322365;28;20234;-79
2022/01/15 02:27:57;;;;;;;1.50;0.90;;;;;;;;;;6321927;28;20187;-79
2022/01/15 02:31:02;;;;;;;0.83;0.83;;;;;;;;;;6321857;28;20267;-79
2022/01/15 02:34:07;;;;;;;0.90;0.90;;;;;;;;;;6323657;28;20276;-79
2022/01/15 02:37:14;;;;;;;1.13;0.90;;;;;;;;;;6324789;28;20275;-79
2022/01/15 02:40:20;;;;;;;0.80;0.80;;;;;;;;;;6324374;28;20230;-79
2022/01/15 02:43:29;;;;;;;0.80;0.80;;;;;;;;;;6324873;28;20190;-79
2022/01/15 02:48:00;;;;;;;2.20;0.80;;;;;;;;;;6323752;28;20230;-79
2022/01/15 02:50:01;;;;;;;0.90;0.90;;;;;;;;;;6323740;28;20231;-79
2022/01/15 02:53:07;;;;;;;2.03;0.80;;;;;;;;;;6324066;28;20493;-79
2022/01/15 02:56:12;;;;;;;1.00;1.00;;;;;;;;;;6323288;28;20257;-79
2022/01/15 02:59:22;;;;;;;0.97;0.97;;;;;;;;;;6323390;28;20229;-79
2022/01/15 03:02:31;;;;;;;0.90;0.90;;;;;;;;;;6323810;28;20225;-79
2022/01/15 03:05:38;;;;;;;1.03;0.87;;;;;;;;;;6323057;28;20246;-79
2022/01/15 03:08:46;;;;;;;0.90;0.90;;;;;;;;;;6306098;28;20210;-79
2022/01/15 03:11:50;;;;;;;1.07;1.07;;;;;;;;;;6298844;28;20214;-79
2022/01/15 03:15:01;;;;;;;1.27;1.10;;;;;;;;;;6308176;28;20233;-79
2022/01/15 03:18:05;;;;;;;2.77;1.10;;;;;;;;;;6323198;28;20193;-79
2022/01/15 03:21:11;;;;;;;0.90;0.90;;;;;;;;;;6284683;28;20242;-79
2022/01/15 03:24:18;;;;;;;4.33;1.30;;;;;;;;;;6298659;28;20267;-79
2022/01/15 03:27:24;;;;;;;0.80;0.80;;;;;;;;;;6304134;28;20222;-79
2022/01/15 03:30:28;;;;;;;0.90;0.90;;;;;;;;;;6304116;28;20243;-79
2022/01/15 03:33:33;;;;;;;9.60;0.90;;;;;;;;;;6322898;28;20288;-79
2022/01/15 03:36:42;;;;;;;2.10;0.90;;;;;;;;;;6322853;28;20460;-79
2022/01/15 03:39:48;;;;;;;1.00;1.00;;;;;;;;;;6304123;28;20230;-79
2022/01/15 03:42:53;;;;;;;3.53;0.97;;;;;;;;;;6322902;28;20225;-79
2022/01/15 03:45:57;;;;;;;1.43;1.07;;;;;;;;;;6322411;28;20534;-79
2022/01/15 03:49:02;;;;;;;0.90;0.90;;;;;;;;;;6322251;28;20364;-79
2022/01/15 03:52:08;;;;;;;0.97;0.93;;;;;;;;;;6305381;28;20214;-79
2022/01/15 03:55:15;;;;;;;1.93;1.00;;;;;;;;;;6321997;28;20283;-79
2022/01/15 03:58:20;;;;;;;0.90;0.90;;;;;;;;;;6304017;28;20206;-79
2022/01/15 04:01:24;;;;;;;0.87;0.87;;;;;;;;;;6296745;28;20232;-79
2022/01/15 04:04:30;;;;;;;1.07;0.90;;;;;;;;;;6279162;28;20238;-79
2022/01/15 04:07:34;;;;;;;2.20;1.07;;;;;;;;;;6297444;28;20238;-79
2022/01/15 04:10:42;;;;;;;1.23;1.10;;;;;;;;;;6262567;28;20235;-79
2022/01/15 04:13:47;;;;;;;1.10;1.00;;;;;;;;;;6279642;28;20223;-79
2022/01/15 04:16:51;;;;;;;1.03;0.90;;;;;;;;;;6296722;28;20434;-78
2022/01/15 04:19:56;;;;;;;2.20;1.07;;;;;;;;;;6279237;28;20230;-79
2022/01/15 04:23:00;;;;;;;0.90;0.90;;;;;;;;;;6297877;28;20237;-79
2022/01/15 04:26:06;;;;;;;2.10;0.90;;;;;;;;;;6296231;28;20302;-79
2022/01/15 04:29:11;;;;;;;0.93;0.93;;;;;;;;;;6296521;28;20226;-79
2022/01/15 04:32:17;;;;;;;1.00;1.00;;;;;;;;;;6279620;28;20322;-79
2022/01/15 04:35:21;;;;;;;0.80;0.77;;;;;;;;;;6296801;28;20417;-79
2022/01/15 04:38:25;;;;;;;1.00;1.00;;;;;;;;;;6296940;28;20231;-79
2022/01/15 04:41:31;;;;;;;0.90;0.90;;;;;;;;;;6296061;28;20322;-79
2022/01/15 04:44:35;;;;;;;1.50;1.30;;;;;;;;;;6295758;28;20572;-79
2022/01/15 04:47:41;;;;;;;1.70;1.20;;;;;;;;;;6278679;28;20505;-79
2022/01/15 04:50:45;;;;;;;3.50;0.97;;;;;;;;;;6296336;28;20329;-79
2022/01/15 04:53:50;;;;;;;1.20;1.10;;;;;;;;;;6295869;28;20187;-79
2022/01/15 04:56:56;;;;;;;1.23;1.23;;;;;;;;;;6289490;28;20199;-79
2022/01/15 05:00:00;;;;;;;0.90;0.90;;;;;;;;;;6271252;28;20303;-78
2022/01/15 05:03:05;;;;;;;1.67;1.00;;;;;;;;;;6271705;28;20379;-78
2022/01/15 05:06:10;;;;;;;1.93;1.13;;;;;;;;;;6269372;28;20294;-79
2022/01/15 05:09:14;;;;;;;1.90;1.03;;;;;;;;;;6269015;28;20223;-79
2022/01/15 05:12:28;;;;;;;1.80;0.77;;;;;;;;;;6270611;28;20251;-79
2022/01/15 05:15:32;;;;;;;1.73;1.30;;;;;;;;;;6252243;28;20491;-79
2022/01/15 05:18:37;;;;;;;0.80;0.80;;;;;;;;;;6270802;28;20255;-79
2022/01/15 05:21:41;;;;;;;1.13;1.10;;;;;;;;;;6269886;28;20531;-79
2022/01/15 05:24:45;;;;;;;1.17;1.00;;;;;;;;;;6253197;28;20467;-79
2022/01/15 05:27:51;;;;;;;1.00;1.00;;;;;;;;;;6269671;28;20373;-79
2022/01/15 05:30:56;;;;;;;1.57;1.03;;;;;;;;;;6269739;28;20238;-78
2022/01/15 05:34:00;;;;;;;0.90;0.90;;;;;;;;;;6273822;28;20238;-79
2022/01/15 05:37:04;;;;;;;1.20;0.83;;;;;;;;;;6294267;28;20218;-79
2022/01/15 05:40:16;;;;;;;1.10;1.10;;;;;;;;;;6293168;28;20297;-78
2022/01/15 05:43:22;;;;;;;0.80;0.80;;;;;;;;;;6294016;28;20253;-78
2022/01/15 05:46:27;;;;;;;1.47;0.90;;;;;;;;;;6292939;28;20235;-79
2022/01/15 05:49:31;;;;;;;1.53;1.00;;;;;;;;;;6292717;28;20600;-79
2022/01/15 05:52:36;;;;;;;3.03;1.17;;;;;;;;;;6292511;28;20187;-79
2022/01/15 05:55:40;;;;;;;1.33;1.13;;;;;;;;;;6274814;28;20246;-79
2022/01/15 05:58:46;;;;;;;2.10;1.10;;;;;;;;;;6314115;28;20191;-79
2022/01/15 06:01:50;;;;;;;0.90;0.90;;;;;;;;;;6318049;28;20240;-79
2022/01/15 06:04:54;;;;;;;0.90;0.90;;;;;;;;;;6318132;28;20244;-78
2022/01/15 06:07:58;;;;;;;1.03;1.03;;;;;;;;;;6319205;28;20221;-79
2022/01/15 06:11:02;;;;;;;1.00;1.00;;;;;;;;;;6316446;28;20233;-79
2022/01/15 06:14:10;;;;;;;2.40;0.80;;;;;;;;;;6315801;28;20532;-78
2022/01/15 06:17:15;;;;;;;1.03;0.90;;;;;;;;;;6316025;28;20260;-79
2022/01/15 06:20:20;;;;;;;1.50;1.40;;;;;;;;;;6299510;28;20261;-79
2022/01/15 06:23:24;;;;;;;2.80;1.10;;;;;;;;;;6317633;28;20192;-79
2022/01/15 06:26:28;;;;;;;2.37;1.07;;;;;;;;;;6316291;28;20241;-79
2022/01/15 06:29:34;;;;;;;2.10;1.00;;;;;;;;;;6315241;28;20226;-78
2022/01/15 06:32:38;;;;;;;0.80;0.80;;;;;;;;;;6316489;28;20242;-79
2022/01/15 06:35:42;;;;;;;0.93;0.93;;;;;;;;;;6316098;28;20233;-79
2022/01/15 06:38:47;;;;;;;1.07;1.07;;;;;;;;;;6316517;28;20199;-79
2022/01/15 06:41:51;;;;;;;1.97;1.20;;;;;;;;;;6317717;28;20190;-79
2022/01/15 06:44:56;;;;;;;0.80;0.80;;;;;;;;;;6316787;28;20301;-79
2022/01/15 06:48:00;;;;;;;2.43;1.13;;;;;;;;;;6317936;28;20187;-79
2022/01/15 06:51:05;;;;;;;0.80;0.80;;;;;;;;;;6316936;28;20240;-78
2022/01/15 06:54:11;;;;;;;0.93;0.87;;;;;;;;;;6315853;28;20289;-78
2022/01/15 06:57:15;;;;;;;1.10;1.10;;;;;;;;;;6289063;28;20424;-79
2022/01/15 07:00:21;;;;;;;1.20;1.10;;;;;;;;;;6291178;28;20548;-79
2022/01/15 07:03:28;;;;;;;2.40;1.57;;;;;;;;;;6291837;28;20225;-79
2022/01/15 07:06:32;;;;;;;1.37;1.37;;;;;;;;;;6295634;28;20297;-79
2022/01/15 07:09:36;;;;;;;1.33;1.10;;;;;;;;;;6296312;28;20289;-79
2022/01/15 07:12:41;;;;;;;4.60;0.97;;;;;;;;;;6277986;28;20202;-80
2022/01/15 07:15:47;;;;;;;1.70;0.90;;;;;;;;;;6296032;28;20234;-79
2022/01/15 07:18:51;;;;;;;1.00;1.00;;;;;;;;;;6294461;28;20187;-79
2022/01/15 07:21:55;;;;;;;1.13;0.87;;;;;;;;;;6295641;28;20195;-79
2022/01/15 07:24:59;;;;;;;1.10;0.90;;;;;;;;;;6294953;28;20250;-79
2022/01/15 07:28:04;;;;;;;1.17;1.07;;;;;;;;;;6295980;28;20255;-79
2022/01/15 07:31:09;;;;;;;3.00;1.13;;;;;;;;;;6295534;28;20232;-79
2022/01/15 07:34:14;;;;;;;1.27;0.90;;;;;;;;;;6301588;28;20236;-79
2022/01/15 07:37:19;;;;;;;2.97;1.00;;;;;;;;;;6319331;28;20268;-79
2022/01/15 07:40:23;;;;;;;1.83;1.17;;;;;;;;;;6320392;28;20416;-79
2022/01/15 07:43:29;;;;;;;1.03;1.00;;;;;;;;;;6319940;28;20186;-79
2022/01/15 07:46:34;;;;;;;1.03;0.83;;;;;;;;;;6320393;28;20296;-79
2022/01/15 07:49:40;;;;;;;1.90;0.90;;;;;;;;;;6301837;28;20228;-79
2022/01/15 07:52:44;;;;;;;1.03;1.03;;;;;;;;;;6302075;28;20265;-79
2022/01/15 07:55:48;;;;;;;1.30;1.20;;;;;;;;;;6318718;28;20255;-79
2022/01/15 07:58:52;;;;;;;3.07;1.10;;;;;;;;;;6300455;28;20201;-79
2022/01/15 08:01:58;;;;;;;1.50;1.20;;;;;;;;;;6318862;28;20193;-79
2022/01/15 08:05:03;;;;;;;1.27;1.27;;;;;;;;;;6318645;28;20288;-79
2022/01/15 08:08:08;;;;;;;1.00;1.00;;;;;;;;;;6320016;28;20212;-79
2022/01/15 08:11:13;;;;;;;1.03;1.03;;;;;;;;;;6319394;28;20234;-79
2022/01/15 08:14:18;;;;;;;0.97;0.90;;;;;;;;;;6318886;28;20230;-80
2022/01/15 08:17:24;;;;;;;4.03;1.20;;;;;;;;;;6301709;28;20267;-79
2022/01/15 08:20:28;;;;;;;6.50;1.20;;;;;;;;;;6318810;28;20225;-79
2022/01/15 08:23:33;;;;;;;3.60;1.30;;;;;;;;;;6319797;28;20218;-79
2022/01/15 08:26:37;;;;;;;2.20;1.03;;;;;;;;;;6318646;28;20302;-79
2022/01/15 08:29:41;;;;;;;1.37;1.27;;;;;;;;;;6318782;28;20236;-79
2022/01/15 08:32:47;;;;;;;6.50;1.23;;;;;;;;;;6319375;28;20200;-79
2022/01/15 08:35:51;;;;;;;1.60;0.90;;;;;;;;;;6318876;28;20232;-79
2022/01/15 08:38:55;;;;;;;1.13;1.13;;;;;;;;;;6319171;28;20259;-80
2022/01/15 08:42:00;;;;;;;0.90;0.90;;;;;;;;;;6318453;28;20497;-79
2022/01/15 08:45:06;;;;;;;1.37;1.30;;;;;;;;;;6317986;28;20296;-80
2022/01/15 08:48:19;;;;;;;0.80;0.80;;;;;;;;;;6301205;28;20385;-80
2022/01/15 08:51:25;;;;;;;1.30;1.17;;;;;;;;;;6317815;28;20237;-79
2022/01/15 08:54:29;;;;;;;1.00;1.00;;;;;;;;;;6317464;28;20293;-80
2022/01/15 08:57:33;;;;;;;1.87;1.00;;;;;;;;;;6317933;28;20264;-80
2022/01/15 09:00:38;;;;;;;1.73;1.20;;;;;;;;;;6317884;28;20293;-80
2022/01/15 09:03:44;;;;;;;0.83;0.83;;;;;;;;;;6318103;28;20186;-80
2022/01/15 09:06:48;;;;;;;1.33;0.90;;;;;;;;;;6292526;28;20215;-80
2022/01/15 09:09:52;;;;;;;1.40;0.87;;;;;;;;;;6291225;28;20428;-79
2022/01/15 09:12:56;;;;;;;2.83;1.13;;;;;;;;;;6295343;28;20187;-78
2022/01/15 09:16:07;;;;;;;0.80;0.80;;;;;;;;;;6294478;28;20235;-78
2022/01/15 09:19:14;;;;;;;2.20;0.90;;;;;;;;;;6290723;28;20237;-78
2022/01/15 09:22:18;;;;;;;7.33;1.17;;;;;;;;;;6294618;28;20187;-78
2022/01/15 09:25:23;;;;;;;2.03;1.10;;;;;;;;;;6294629;28;20278;-78
2022/01/15 09:31:50;;;;;;;1.67;1.00;;;;;;;;;;6295548;28;20228;-78
2022/01/15 09:34:55;;;;;;;2.20;1.20;;;;;;;;;;6293306;28;20270;-78
2022/01/15 09:38:04;;;;;;;5.60;1.20;;;;;;;;;;6295375;28;20209;-77
2022/01/15 09:41:12;;;;;;;3.70;1.07;;;;;;;;;;6290708;28;20235;-78
2022/01/15 09:44:18;;;;;;;1.93;1.00;;;;;;;;;;6286568;28;20537;-79
2022/01/15 09:47:22;;;;;;;1.30;1.30;;;;;;;;;;6287085;28;20401;-78
2022/01/15 09:50:31;;;;;;;5.20;1.20;;;;;;;;;;6286215;28;20300;-78
2022/01/15 09:53:35;;;;;;;3.77;1.40;;;;;;;;;;6288479;28;20197;-78
2022/01/15 09:56:39;;;;;;;1.10;1.10;;;;;;;;;;6287862;28;20250;-78
2022/01/15 09:59:43;;;;;;;3.57;1.00;;;;;;;;;;6288463;28;20236;-78
2022/01/15 10:02:50;;;;;;;1.00;1.00;;;;;;;;;;6288949;28;20205;-77
2022/01/15 10:05:55;;;;;;;3.23;0.93;;;;;;;;;;6288076;28;20615;-78
2022/01/15 10:09:00;;;;;;;0.90;0.90;;;;;;;;;;6287450;28;20474;-79
2022/01/15 10:12:19;;;;;;;0.90;0.90;;;;;;;;;;6287985;28;20194;-79
2022/01/15 10:15:47;;;;;;;1.03;1.03;;;;;;;;;;6293997;28;20236;-78
2022/01/15 10:22:34;;;;;;;6.73;1.00;;;;;;;;;;6281971;28;20191;-78
2022/01/15 10:25:39;;;;;;;1.30;1.20;;;;;;;;;;6294646;28;20272;-78
2022/01/15 10:28:55;;;;;;;0.90;0.90;;;;;;;;;;6292641;28;20245;-78
2022/01/15 10:32:07;;;;;;;1.00;1.00;;;;;;;;;;6251226;28;20293;-78
2022/01/15 10:39:34;;;;;;;1.27;1.00;;;;;;;;;;6280233;28;20241;-78
2022/01/15 10:42:54;;;;;;;1.13;1.03;;;;;;;;;;6300538;28;20184;-77
2022/01/15 10:46:01;;;;;;;1.33;1.20;;;;;;;;;;6284377;28;20253;-78
2022/01/15 10:49:26;;;;;;;2.33;0.80;;;;;;;;;;6296520;28;20251;-77
2022/01/15 10:52:35;;;;;;;10.77;1.30;;;;;;;;;;6265787;28;20240;-78
2022/01/15 10:55:45;;;;;;;1.00;1.00;;;;;;;;;;6289665;28;20230;-81
2022/01/15 10:59:07;;;;;;;1.57;0.80;;;;;;;;;;6318331;28;20339;-78
2022/01/15 11:02:18;;;;;;;1.07;1.00;;;;;;;;;;6307586;28;20249;-77
2022/01/15 11:05:31;;;;;;;1.00;1.00;;;;;;;;;;6296245;28;20334;-81
2022/01/15 11:08:38;;;;;;;7.53;1.00;;;;;;;;;;6298104;28;20234;-79
2022/01/15 11:11:56;;;;;;;4.80;1.20;;;;;;;;;;6298253;28;20289;-78
2022/01/15 11:15:14;;;;;;;1.80;0.93;;;;;;;;;;6299202;28;20188;-79
2022/01/15 11:18:29;;;;;;;1.43;1.23;;;;;;;;;;6300355;28;20234;-78
2022/01/15 11:21:34;;;;;;;3.07;1.20;;;;;;;;;;6298423;28;20235;-77
2022/01/15 11:24:43;;;;;;;0.80;0.80;;;;;;;;;;6295979;28;20194;-77
2022/01/15 11:27:51;;;;;;;0.93;0.93;;;;;;;;;;6293163;28;20262;-78
2022/01/15 11:31:09;;;;;;;1.27;0.90;;;;;;;;;;6294786;28;20238;-78
2022/01/15 11:34:16;;;;;;;0.90;0.90;;;;;;;;;;6295331;28;20272;-77
2022/01/15 11:37:20;;;;;;;0.83;0.83;;;;;;;;;;6315312;28;20245;-78
2022/01/15 11:40:39;;;;;;;0.93;0.93;;;;;;;;;;6315048;28;20252;-77
2022/01/15 11:43:45;;;;;;;0.90;0.90;;;;;;;;;;6319990;28;20222;-77
2022/01/15 11:46:52;;;;;;;0.80;0.80;;;;;;;;;;6314707;28;20227;-77
2022/01/15 11:49:59;;;;;;;4.07;1.27;;;;;;;;;;6315833;28;20191;-78
2022/01/15 11:53:05;;;;;;;0.80;0.80;;;;;;;;;;6316040;28;20242;-76
2022/01/15 11:56:16;;;;;;;3.10;1.37;;;;;;;;;;6317643;28;20248;-77
2022/01/15 11:59:49;;;;;;;2.40;1.00;;;;;;;;;;6314977;28;20221;-76
2022/01/15 12:03:08;;;;;;;1.60;1.00;;;;;;;;;;6305669;28;20237;-77
2022/01/15 12:06:12;;;;;;;2.67;1.20;;;;;;;;;;6314792;28;20229;-77
2022/01/15 12:09:31;;;;;;;1.10;1.00;;;;;;;;;;6316180;28;20220;-77
2022/01/15 12:12:45;;;;;;;2.10;1.10;;;;;;;;;;6314925;28;20233;-76
2022/01/15 12:16:15;;;;;;;3.20;1.43;;;;;;;;;;6315547;28;20289;-80
2022/01/15 12:19:36;;;;;;;3.90;1.10;;;;;;;;;;6318882;28;20215;-79
2022/01/15 12:22:43;;;;;;;10.37;1.03;;;;;;;;;;6318814;28;20399;-78
2022/01/15 12:25:48;;;;;;;2.13;1.00;;;;;;;;;;6318075;28;20245;-78
2022/01/15 12:28:52;;;;;;;3.47;1.40;;;;;;;;;;6303364;28;20205;-79
2022/01/15 12:31:59;;;;;;;10.57;1.47;;;;;;;;;;6322763;28;20248;-79
2022/01/15 12:35:04;;;;;;;1.00;1.00;;;;;;;;;;6322478;28;20233;-80
2022/01/15 12:38:30;;;;;;;3.20;1.10;;;;;;;;;;6319499;28;20292;-80
2022/01/15 12:41:53;;;;;;;5.17;1.03;;;;;;;;;;6299726;28;20231;-80
2022/01/15 12:44:58;;;;;;;3.17;0.83;;;;;;;;;;6304977;28;20213;-79
2022/01/15 12:48:05;;;;;;;4.20;1.20;;;;;;;;;;6303807;28;20505;-79
2022/01/15 12:51:15;;;;;;;2.17;1.03;;;;;;;;;;6320367;28;20231;-78
2022/01/15 12:54:30;;;;;;;3.27;1.10;;;;;;;;;;6301164;28;20263;-78
2022/01/15 12:57:48;;;;;;;1.20;1.10;;;;;;;;;;6305285;28;20239;-79
2022/01/15 13:00:55;;;;;;;4.33;1.10;;;;;;;;;;6290812;28;20302;-79
2022/01/15 13:04:11;;;;;;;4.73;1.40;;;;;;;;;;6273828;28;20201;-78
2022/01/15 13:07:15;;;;;;;17.47;1.60;;;;;;;;;;6270328;28;20253;-79
2022/01/15 13:10:33;;;;;;;1.20;1.20;;;;;;;;;;6289355;28;20232;-79
2022/01/15 13:13:41;;;;;;;1.70;1.20;;;;;;;;;;6293296;28;20205;-78
2022/01/15 13:16:45;;;;;;;3.27;0.90;;;;;;;;;;6293513;28;20231;-78
2022/01/15 13:19:51;;;;;;;4.03;1.33;;;;;;;;;;6293943;28;20273;-78
2022/01/15 13:22:57;;;;;;;8.20;1.20;;;;;;;;;;6272999;28;20238;-78
2022/01/15 13:26:06;;;;;;;1.00;1.00;;;;;;;;;;6292948;28;20232;-78
2022/01/15 13:33:34;;;;;;;0.70;0.70;;;;;;;;;;6268654;28;20217;-77
2022/01/15 13:36:40;;;;;;;0.83;0.83;;;;;;;;;;6290634;28;20273;-77
2022/01/15 13:39:45;;;;;;;15.87;1.10;;;;;;;;;;6291632;28;20218;-77
2022/01/15 13:42:52;;;;;;;0.97;0.80;;;;;;;;;;6295569;28;20240;-78
2022/01/15 13:53:59;;;;;;;5.20;1.00;;;;;;;;;;6296404;28;20196;-77
2022/01/15 13:58:11;;;;;;;1.70;1.00;;;;;;;;;;6304685;28;20256;-77
2022/01/15 14:01:23;;;;;;;3.30;1.00;;;;;;;;;;6311317;28;20301;-78
2022/01/15 14:04:31;;;;;;;3.13;1.13;;;;;;;;;;6317460;28;20223;-78
2022/01/15 14:07:36;;;;;;;3.70;1.27;;;;;;;;;;6311614;28;20229;-78
2022/01/15 14:10:43;;;;;;;4.60;1.17;;;;;;;;;;6314155;28;20225;-78
2022/01/15 14:13:47;;;;;;;1.53;1.00;;;;;;;;;;6316012;28;20269;-79
2022/01/15 14:16:52;;;;;;;1.10;1.00;;;;;;;;;;6316602;28;20289;-78
2022/01/15 14:20:17;;;;;;;5.20;1.00;;;;;;;;;;6316978;28;20221;-78
2022/01/15 14:23:29;;;;;;;23.50;1.70;;;;;;;;;;6316726;28;20211;-77
2022/01/15 14:26:34;;;;;;;1.70;0.90;;;;;;;;;;6317190;28;20228;-78
2022/01/15 14:29:38;;;;;;;2.13;0.93;;;;;;;;;;6315922;28;20190;-77
2022/01/15 14:32:42;;;;;;;14.50;1.67;;;;;;;;;;6316354;28;20250;-78
2022/01/15 14:35:47;;;;;;;6.90;1.33;;;;;;;;;;6315195;28;20408;-78
2022/01/15 14:38:51;;;;;;;7.73;1.13;;;;;;;;;;6316780;28;20197;-78
2022/01/15 14:41:57;;;;;;;2.97;1.10;;;;;;;;;;6314993;28;20428;-78
2022/01/15 14:45:01;;;;;;;1.37;1.27;;;;;;;;;;6315164;28;20256;-77
2022/01/15 14:48:06;;;;;;;1.90;1.10;;;;;;;;;;6314746;28;20340;-78
2022/01/15 14:51:16;;;;;;;1.40;1.30;;;;;;;;;;6315358;28;20267;-78
2022/01/15 14:54:21;;;;;;;8.03;1.30;;;;;;;;;;6314879;28;20186;-78
2022/01/15 14:57:26;;;;;;;2.27;1.13;;;;;;;;;;6304071;28;20236;-78
2022/01/15 15:00:33;;;;;;;4.33;1.20;;;;;;;;;;6289534;28;20321;-78
2022/01/15 15:03:37;;;;;;;1.00;1.00;;;;;;;;;;6290281;28;20187;-78
2022/01/15 15:06:41;;;;;;;9.47;1.53;;;;;;;;;;6291465;28;20321;-79
2022/01/15 15:09:45;;;;;;;3.10;1.40;;;;;;;;;;6290701;28;20218;-77
2022/01/15 15:12:56;;;;;;;4.47;1.23;;;;;;;;;;6290009;28;20239;-78
2022/01/15 15:16:01;;;;;;;1.50;1.50;;;;;;;;;;6289065;28;20375;-78
2022/01/15 15:19:05;;;;;;;1.10;1.10;;;;;;;;;;6290541;28;20195;-78
2022/01/15 15:22:09;;;;;;;13.57;1.73;;;;;;;;;;6289522;28;20234;-78
2022/01/15 15:25:15;;;;;;;5.20;1.70;;;;;;;;;;6289392;28;20218;-78
2022/01/15 15:28:20;;;;;;;2.20;1.20;;;;;;;;;;6288953;28;20240;-78
2022/01/15 15:31:25;;;;;;;1.10;1.10;;;;;;;;;;6289446;28;20232;-78
2022/01/15 15:34:29;;;;;;;7.77;1.23;;;;;;;;;;6284960;28;20545;-77
2022/01/15 15:37:34;;;;;;;4.87;1.50;;;;;;;;;;6263947;28;20424;-77
2022/01/15 15:40:38;;;;;;;9.67;1.63;;;;;;;;;;6263648;28;20234;-78
2022/01/15 15:43:43;;;;;;;5.50;1.50;;;;;;;;;;6265082;28;20188;-78
2022/01/15 15:46:48;;;;;;;5.53;1.30;;;;;;;;;;6264751;28;20232;-77
2022/01/15 15:49:52;;;;;;;3.50;1.60;;;;;;;;;;6264228;28;20478;-78
2022/01/15 15:52:57;;;;;;;11.07;1.87;;;;;;;;;;6263840;28;20570;-77
2022/01/15 15:56:01;;;;;;;7.93;1.80;;;;;;;;;;6264565;28;20293;-77
2022/01/15 15:59:06;;;;;;;7.73;1.50;;;;;;;;;;6264510;28;20265;-77
2022/01/15 16:02:13;;;;;;;4.57;1.80;;;;;;;;;;6264185;28;20299;-77
2022/01/15 16:05:18;;;;;;;4.30;1.70;;;;;;;;;;6264725;28;20190;-77
2022/01/15 16:08:22;;;;;;;6.63;1.40;;;;;;;;;;6264498;28;20211;-77
2022/01/15 16:11:26;;;;;;;2.37;1.67;;;;;;;;;;6263718;28;20250;-77
2022/01/15 16:14:32;;;;;;;6.63;1.50;;;;;;;;;;6264452;28;20200;-77
2022/01/15 16:17:37;;;;;;;7.53;1.73;;;;;;;;;;6262590;28;20234;-77
2022/01/15 16:20:41;;;;;;;3.27;1.60;;;;;;;;;;6242531;28;20261;-77
2022/01/15 16:23:46;;;;;;;7.43;1.97;;;;;;;;;;6263359;28;20239;-77
2022/01/15 16:26:50;;;;;;;1.90;1.53;;;;;;;;;;6263761;28;20238;-77
2022/01/15 16:29:55;;;;;;;13.17;2.10;;;;;;;;;;6263173;28;20187;-77
2022/01/15 16:32:59;;;;;;;3.60;1.53;;;;;;;;;;6262972;28;20513;-77
2022/01/15 16:36:04;;;;;;;7.23;2.20;;;;;;;;;;6279979;28;20268;-78
2022/01/15 16:39:08;;;;;;;9.00;2.03;;;;;;;;;;6288531;28;20188;-77
2022/01/15 16:42:13;;;;;;;1.47;1.47;;;;;;;;;;6287608;28;20250;-79
2022/01/15 16:45:20;;;;;;;3.93;1.60;;;;;;;;;;6288786;28;20188;-78
2022/01/15 16:48:26;;;;;;;1.73;1.73;;;;;;;;;;6287741;28;20407;-78
2022/01/15 16:51:30;;;;;;;1.73;1.70;;;;;;;;;;6278197;28;20431;-78
2022/01/15 16:54:35;;;;;;;3.07;1.40;;;;;;;;;;6263844;28;20187;-78
2022/01/15 16:57:40;;;;;;;1.70;1.60;;;;;;;;;;6263269;28;20227;-78
2022/01/15 17:00:45;;;;;;;2.77;1.87;;;;;;;;;;6262410;28;20411;-78
2022/01/15 17:03:50;;;;;;;15.43;2.10;;;;;;;;;;6263314;28;20188;-78
2022/01/15 17:06:54;;;;;;;2.00;2.00;;;;;;;;;;6263503;28;20271;-78
2022/01/15 17:09:58;;;;;;;2.90;1.60;;;;;;;;;;6263480;28;20218;-78
2022/01/15 17:13:02;;;;;;;2.67;2.03;;;;;;;;;;6285643;28;20306;-78
2022/01/15 17:16:08;;;;;;;2.73;2.40;;;;;;;;;;6287829;28;20436;-78
2022/01/15 17:19:14;;;;;;;11.20;6.53;;;;;;;;;;6288447;28;20249;-78
2022/01/15 17:22:18;;;;;;;17.80;7.63;;;;;;;;;;6286784;28;20249;-78
2022/01/15 17:25:22;;;;;;;12.63;4.13;;;;;;;;;;6287879;28;20185;-78
2022/01/15 17:28:27;;;;;;;11.53;5.57;;;;;;;;;;6288335;28;20186;-78
2022/01/15 17:31:32;;;;;;;8.10;3.37;;;;;;;;;;6287602;28;20343;-78
2022/01/15 17:34:40;;;;;;;2.50;2.40;;;;;;;;;;6286830;28;20383;-78
2022/01/15 17:37:44;;;;;;;2.37;1.77;;;;;;;;;;6287181;28;20243;-78
2022/01/15 17:40:49;;;;;;;6.47;2.20;;;;;;;;;;6287180;28;20236;-78
2022/01/15 17:43:53;;;;;;;7.20;2.00;;;;;;;;;;6288039;28;20240;-79
2022/01/15 17:47:01;;;;;;;2.53;2.00;;;;;;;;;;6286714;28;20232;-78
2022/01/15 17:50:07;;;;;;;2.73;1.80;;;;;;;;;;6286410;28;20413;-78
2022/01/15 17:53:14;;;;;;;12.57;2.00;;;;;;;;;;6287208;28;20237;-77
2022/01/15 17:56:19;;;;;;;5.23;1.77;;;;;;;;;;6291218;28;20259;-79
2022/01/15 17:59:24;;;;;;;2.07;1.97;;;;;;;;;;6289931;28;20192;-78
2022/01/15 18:02:29;;;;;;;1.73;1.50;;;;;;;;;;6289795;28;20229;-78
2022/01/15 18:05:43;;;;;;;1.93;1.80;;;;;;;;;;6289085;28;20197;-78
2022/01/15 18:08:52;;;;;;;4.37;1.80;;;;;;;;;;6291821;28;20191;-78
2022/01/15 18:12:04;;;;;;;4.53;2.10;;;;;;;;;;6269221;28;20440;-77
2022/01/15 18:15:10;;;;;;;3.17;1.97;;;;;;;;;;6293634;28;20193;-77
2022/01/15 18:18:23;;;;;;;7.97;2.20;;;;;;;;;;6290343;28;20469;-76
2022/01/15 18:21:27;;;;;;;10.97;2.20;;;;;;;;;;6286318;28;20250;-78
2022/01/15 18:24:33;;;;;;;2.30;2.17;;;;;;;;;;6287038;28;20216;-77
2022/01/15 18:27:37;;;;;;;2.27;2.10;;;;;;;;;;6285850;28;20237;-77
2022/01/15 18:30:50;;;;;;;3.50;2.10;;;;;;;;;;6290982;28;20232;-77
2022/01/15 18:34:16;;;;;;;3.23;2.50;;;;;;;;;;6283171;28;20207;-78
2022/01/15 18:37:20;;;;;;;2.13;1.73;;;;;;;;;;6289158;28;20238;-77
2022/01/15 18:40:24;;;;;;;2.30;2.20;;;;;;;;;;6288310;28;20508;-78
2022/01/15 18:43:28;;;;;;;3.37;2.17;;;;;;;;;;6286844;28;20275;-78
2022/01/15 18:46:35;;;;;;;3.07;2.50;;;;;;;;;;6286604;28;20236;-77
2022/01/15 18:49:41;;;;;;;3.40;2.70;;;;;;;;;;6286322;28;20296;-77
2022/01/15 18:52:46;;;;;;;9.10;2.30;;;;;;;;;;6285621;28;20243;-78
2022/01/15 18:55:50;;;;;;;2.73;2.53;;;;;;;;;;6285419;28;20235;-77
2022/01/15 18:58:54;;;;;;;10.30;2.27;;;;;;;;;;6286017;28;20543;-77
2022/01/15 19:01:59;;;;;;;2.30;1.93;;;;;;;;;;6290087;28;20244;-78
2022/01/15 19:05:06;;;;;;;3.60;2.20;;;;;;;;;;6289907;28;20334;-78
2022/01/15 19:08:14;;;;;;;5.33;1.70;;;;;;;;;;6289801;28;20242;-77
2022/01/15 19:11:18;;;;;;;2.10;2.00;;;;;;;;;;6289952;28;20262;-77
2022/01/15 19:14:23;;;;;;;3.03;1.93;;;;;;;;;;6290097;28;20199;-78
2022/01/15 19:17:27;;;;;;;3.83;2.17;;;;;;;;;;6290401;28;20294;-77